Decoded Metar for WSSS (SINGAPORE in SINGAPORE) (IATA:SIN) | Meteo·Mobile Aviation Weather
aviador You're here:

WSSS Decoded Metar

SINGAPORE in SINGAPORE
Report Time2019-11-16 01:00:00
UTC Time2019-11-16 01:12:32
Flight Rules vfr VFR
Wind360° at 03 kt
W.Decomp.*RWY 02: 2.8 kt HW 1 kt LCW
Visibility9999 m
Phenomena:N/A
Clouds:Few 018 Hf
Scattered 150 Hf
Broken 300 Hf
Expected CloudBase > 1,600 ft AGL from Temp-Dew spread
Ceiling30,000 ft
Temp28°C (ISA +13)
Dew Point24°C (79% RH)
Heat Index31.9°C
QNH1012 hPa
Density Alt1,985 ft
Elevation52 ft
Report Wrong Elevation
Raw Report
WSSS 160100Z 36003KT 290V070 9999 FEW018 SCT150 BKN300 28/24 Q1012
NOSIG=

Extra information for WSSS:More info

Metar Taf Metar & Taf Last 4 Metars F.Rules Stats Wind Profile Meteogram Temp Stats Airport Information Weather charts Add Link Nearby VenuesMetar ALERT Operation Metar Decoded Social comments